sensor_id;sensor_type;location;lat;lon;timestamp;pressure;altitude;pressure_sealevel;temperature;humidity
47366;BME280;33105;47.964;7.982;2023-01-26T00:00:00;97201.56;;;-0.60;96.20
47366;BME280;33105;47.964;7.982;2023-01-26T00:03:02;97202.41;;;-0.59;96.63
47366;BME280;33105;47.964;7.982;2023-01-26T00:06:08;97198.06;;;-0.60;96.42
47366;BME280;33105;47.964;7.982;2023-01-26T00:09:12;97184.53;;;-0.67;96.31
47366;BME280;33105;47.964;7.982;2023-01-26T00:12:14;97185.31;;;-0.81;96.88
47366;BME280;33105;47.964;7.982;2023-01-26T00:15:15;97185.34;;;-0.66;96.89
47366;BME280;33105;47.964;7.982;2023-01-26T00:18:16;97187.03;;;-0.65;96.83
47366;BME280;33105;47.964;7.982;2023-01-26T00:21:20;97175.13;;;-0.86;96.94
47366;BME280;33105;47.964;7.982;2023-01-26T00:24:21;97164.63;;;-0.95;97.41
47366;BME280;33105;47.964;7.982;2023-01-26T00:27:22;97168.09;;;-0.87;97.36
47366;BME280;33105;47.964;7.982;2023-01-26T00:30:24;97165.25;;;-0.85;96.55
47366;BME280;33105;47.964;7.982;2023-01-26T00:33:25;97163.34;;;-0.77;96.62
47366;BME280;33105;47.964;7.982;2023-01-26T00:36:26;97159.16;;;-0.79;96.23
47366;BME280;33105;47.964;7.982;2023-01-26T00:39:28;97159.03;;;-0.86;96.63
47366;BME280;33105;47.964;7.982;2023-01-26T00:42:29;97154.53;;;-0.71;96.91
47366;BME280;33105;47.964;7.982;2023-01-26T00:45:31;97147.06;;;-0.98;97.74
47366;BME280;33105;47.964;7.982;2023-01-26T00:48:33;97146.16;;;-0.90;97.36
47366;BME280;33105;47.964;7.982;2023-01-26T00:51:35;97147.84;;;-0.89;97.58
47366;BME280;33105;47.964;7.982;2023-01-26T00:54:38;97150.63;;;-0.83;97.10
47366;BME280;33105;47.964;7.982;2023-01-26T00:57:39;97144.09;;;-1.03;98.38
47366;BME280;33105;47.964;7.982;2023-01-26T01:00:41;97137.25;;;-1.06;98.78
47366;BME280;33105;47.964;7.982;2023-01-26T01:03:42;97136.81;;;-1.17;98.08
47366;BME280;33105;47.964;7.982;2023-01-26T01:06:43;97139.00;;;-0.98;98.00
47366;BME280;33105;47.964;7.982;2023-01-26T01:09:45;97128.28;;;-0.98;98.20
47366;BME280;33105;47.964;7.982;2023-01-26T01:12:46;97122.22;;;-0.92;98.15
47366;BME280;33105;47.964;7.982;2023-01-26T01:15:48;97113.16;;;-0.91;97.38
47366;BME280;33105;47.964;7.982;2023-01-26T01:18:53;97117.25;;;-0.80;97.59
47366;BME280;33105;47.964;7.982;2023-01-26T01:21:55;97113.75;;;-0.81;96.90
47366;BME280;33105;47.964;7.982;2023-01-26T01:24:56;97113.25;;;-0.84;97.27
47366;BME280;33105;47.964;7.982;2023-01-26T01:27:57;97109.03;;;-0.79;97.23
47366;BME280;33105;47.964;7.982;2023-01-26T01:31:02;97111.31;;;-0.90;97.17
47366;BME280;33105;47.964;7.982;2023-01-26T01:34:03;97105.41;;;-0.86;97.20
47366;BME280;33105;47.964;7.982;2023-01-26T01:37:04;97106.00;;;-0.98;97.09
47366;BME280;33105;47.964;7.982;2023-01-26T01:40:10;97101.91;;;-1.09;97.47
47366;BME280;33105;47.964;7.982;2023-01-26T01:43:12;97107.94;;;-1.07;97.79
47366;BME280;33105;47.964;7.982;2023-01-26T01:46:32;97102.22;;;-1.04;97.89
47366;BME280;33105;47.964;7.982;2023-01-26T01:49:49;97102.13;;;-0.96;96.93
47366;BME280;33105;47.964;7.982;2023-01-26T01:52:54;97097.56;;;-1.10;97.01
47366;BME280;33105;47.964;7.982;2023-01-26T01:55:59;97093.81;;;-1.01;97.22
47366;BME280;33105;47.964;7.982;2023-01-26T01:59:02;97095.69;;;-0.87;96.82
47366;BME280;33105;47.964;7.982;2023-01-26T02:02:03;97090.50;;;-0.74;96.75
47366;BME280;33105;47.964;7.982;2023-01-26T02:05:15;97093.19;;;-0.74;96.08
47366;BME280;33105;47.964;7.982;2023-01-26T02:08:23;97095.63;;;-0.79;96.34
47366;BME280;33105;47.964;7.982;2023-01-26T02:11:33;97095.25;;;-0.76;95.60
47366;BME280;33105;47.964;7.982;2023-01-26T02:14:36;97097.72;;;-0.74;95.45
47366;BME280;33105;47.964;7.982;2023-01-26T02:17:38;97104.03;;;-0.67;96.21
47366;BME280;33105;47.964;7.982;2023-01-26T02:20:47;97093.19;;;-0.74;95.95
47366;BME280;33105;47.964;7.982;2023-01-26T02:27:11;97093.47;;;-0.69;95.63
47366;BME280;33105;47.964;7.982;2023-01-26T02:30:15;97086.19;;;-0.75;95.97
47366;BME280;33105;47.964;7.982;2023-01-26T02:33:26;97080.19;;;-0.77;95.96
47366;BME280;33105;47.964;7.982;2023-01-26T02:36:33;97077.84;;;-0.80;96.01
47366;BME280;33105;47.964;7.982;2023-01-26T02:39:48;97073.31;;;-0.79;95.70
47366;BME280;33105;47.964;7.982;2023-01-26T02:42:54;97069.97;;;-0.81;95.75
47366;BME280;33105;47.964;7.982;2023-01-26T02:45:55;97065.00;;;-0.84;95.97
47366;BME280;33105;47.964;7.982;2023-01-26T02:48:57;97056.22;;;-0.78;96.00
47366;BME280;33105;47.964;7.982;2023-01-26T02:52:20;97053.53;;;-0.78;95.84
47366;BME280;33105;47.964;7.982;2023-01-26T02:55:30;97055.00;;;-0.76;95.61
47366;BME280;33105;47.964;7.982;2023-01-26T02:58:32;97048.81;;;-0.76;95.69
47366;BME280;33105;47.964;7.982;2023-01-26T03:01:33;97051.69;;;-0.78;95.61
47366;BME280;33105;47.964;7.982;2023-01-26T03:04:34;97053.72;;;-0.80;95.18
47366;BME280;33105;47.964;7.982;2023-01-26T03:07:36;97046.69;;;-0.81;95.97
47366;BME280;33105;47.964;7.982;2023-01-26T03:10:37;97056.75;;;-0.83;95.49
47366;BME280;33105;47.964;7.982;2023-01-26T03:13:40;97054.44;;;-0.86;96.00
47366;BME280;33105;47.964;7.982;2023-01-26T03:16:41;97047.34;;;-0.79;96.31
47366;BME280;33105;47.964;7.982;2023-01-26T03:19:43;97046.88;;;-0.82;96.07
47366;BME280;33105;47.964;7.982;2023-01-26T03:23:02;97043.72;;;-0.86;95.86
47366;BME280;33105;47.964;7.982;2023-01-26T03:26:22;97039.44;;;-0.95;95.75
47366;BME280;33105;47.964;7.982;2023-01-26T03:29:42;97038.41;;;-0.94;96.50
47366;BME280;33105;47.964;7.982;2023-01-26T03:32:44;97048.88;;;-0.84;96.36
47366;BME280;33105;47.964;7.982;2023-01-26T03:35:51;97044.84;;;-0.80;96.62
47366;BME280;33105;47.964;7.982;2023-01-26T03:38:53;97045.31;;;-0.77;96.17
47366;BME280;33105;47.964;7.982;2023-01-26T03:41:56;97046.50;;;-0.79;95.54
47366;BME280;33105;47.964;7.982;2023-01-26T03:45:16;97045.75;;;-0.88;95.77
47366;BME280;33105;47.964;7.982;2023-01-26T03:48:35;97044.00;;;-0.81;95.95
47366;BME280;33105;47.964;7.982;2023-01-26T03:51:55;97039.66;;;-0.82;96.28
47366;BME280;33105;47.964;7.982;2023-01-26T03:55:15;97053.44;;;-0.85;95.84
47366;BME280;33105;47.964;7.982;2023-01-26T03:58:35;97044.91;;;-1.03;96.26
47366;BME280;33105;47.964;7.982;2023-01-26T04:01:39;97039.53;;;-0.88;96.61
47366;BME280;33105;47.964;7.982;2023-01-26T04:04:40;97036.03;;;-0.89;96.63
47366;BME280;33105;47.964;7.982;2023-01-26T04:08:05;97039.06;;;-0.92;95.70
47366;BME280;33105;47.964;7.982;2023-01-26T04:11:34;97040.09;;;-0.93;96.03
47366;BME280;33105;47.964;7.982;2023-01-26T04:14:35;97034.34;;;-0.90;96.36
47366;BME280;33105;47.964;7.982;2023-01-26T04:18:04;97034.19;;;-0.88;96.43
47366;BME280;33105;47.964;7.982;2023-01-26T04:21:24;97027.34;;;-0.91;96.63
47366;BME280;33105;47.964;7.982;2023-01-26T04:24:41;97024.28;;;-0.88;96.00
47366;BME280;33105;47.964;7.982;2023-01-26T04:27:42;97024.94;;;-1.00;96.83
47366;BME280;33105;47.964;7.982;2023-01-26T04:30:45;97016.31;;;-0.96;96.86
47366;BME280;33105;47.964;7.982;2023-01-26T04:33:46;97016.50;;;-0.97;96.53
47366;BME280;33105;47.964;7.982;2023-01-26T04:36:47;97007.84;;;-0.99;96.87
47366;BME280;33105;47.964;7.982;2023-01-26T04:39:50;97002.25;;;-0.98;97.23
47366;BME280;33105;47.964;7.982;2023-01-26T04:42:52;97004.94;;;-0.98;96.84
47366;BME280;33105;47.964;7.982;2023-01-26T04:45:58;97001.25;;;-0.97;97.26
47366;BME280;33105;47.964;7.982;2023-01-26T04:49:00;96997.34;;;-0.94;96.89
47366;BME280;33105;47.964;7.982;2023-01-26T04:52:02;96994.56;;;-1.16;97.25
47366;BME280;33105;47.964;7.982;2023-01-26T04:55:04;96991.78;;;-1.22;97.27
47366;BME280;33105;47.964;7.982;2023-01-26T04:58:07;96991.53;;;-1.13;97.41
47366;BME280;33105;47.964;7.982;2023-01-26T05:01:09;96984.50;;;-1.14;97.08
47366;BME280;33105;47.964;7.982;2023-01-26T05:04:11;96989.09;;;-1.22;97.96
47366;BME280;33105;47.964;7.982;2023-01-26T05:07:18;96980.97;;;-1.29;98.11
47366;BME280;33105;47.964;7.982;2023-01-26T05:10:21;96984.97;;;-1.25;97.55
47366;BME280;33105;47.964;7.982;2023-01-26T05:13:48;96981.81;;;-1.28;97.11
47366;BME280;33105;47.964;7.982;2023-01-26T05:17:08;96983.56;;;-1.21;97.24
47366;BME280;33105;47.964;7.982;2023-01-26T05:20:15;96993.09;;;-1.18;97.14
47366;BME280;33105;47.964;7.982;2023-01-26T05:23:39;96993.72;;;-1.31;97.82
47366;BME280;33105;47.964;7.982;2023-01-26T05:26:59;96991.53;;;-1.27;97.95
47366;BME280;33105;47.964;7.982;2023-01-26T05:30:21;96997.59;;;-1.33;98.34
47366;BME280;33105;47.964;7.982;2023-01-26T05:33:24;96993.84;;;-1.24;97.98
47366;BME280;33105;47.964;7.982;2023-01-26T05:36:25;96990.13;;;-1.23;97.54
47366;BME280;33105;47.964;7.982;2023-01-26T05:39:26;96996.97;;;-1.21;97.79
47366;BME280;33105;47.964;7.982;2023-01-26T05:42:29;97000.34;;;-1.42;97.55
47366;BME280;33105;47.964;7.982;2023-01-26T05:45:51;96998.50;;;-1.41;98.72
47366;BME280;33105;47.964;7.982;2023-01-26T05:48:53;96994.25;;;-1.35;98.25
47366;BME280;33105;47.964;7.982;2023-01-26T05:51:54;96996.94;;;-1.35;98.69
47366;BME280;33105;47.964;7.982;2023-01-26T05:54:56;97001.00;;;-1.40;98.50
47366;BME280;33105;47.964;7.982;2023-01-26T05:57:58;97005.16;;;-1.37;98.62
47366;BME280;33105;47.964;7.982;2023-01-26T06:01:03;97001.81;;;-1.54;99.44
47366;BME280;33105;47.964;7.982;2023-01-26T06:04:06;97006.63;;;-1.49;99.97
47366;BME280;33105;47.964;7.982;2023-01-26T06:07:17;97002.59;;;-1.30;99.49
47366;BME280;33105;47.964;7.982;2023-01-26T06:10:29;96994.78;;;-1.55;99.00
47366;BME280;33105;47.964;7.982;2023-01-26T06:13:48;96996.03;;;-1.65;100.00
47366;BME280;33105;47.964;7.982;2023-01-26T06:16:57;96993.50;;;-1.44;99.99
47366;BME280;33105;47.964;7.982;2023-01-26T06:19:59;96987.31;;;-1.45;99.49
47366;BME280;33105;47.964;7.982;2023-01-26T06:23:00;96993.72;;;-1.31;99.67
47366;BME280;33105;47.964;7.982;2023-01-26T06:26:02;96996.22;;;-1.29;99.19
47366;BME280;33105;47.964;7.982;2023-01-26T06:29:04;96988.06;;;-1.51;98.92
47366;BME280;33105;47.964;7.982;2023-01-26T06:32:12;96975.44;;;-1.13;98.40
47366;BME280;33105;47.964;7.982;2023-01-26T06:35:14;96980.03;;;-1.36;98.34
47366;BME280;33105;47.964;7.982;2023-01-26T06:38:16;96977.47;;;-1.29;98.79
47366;BME280;33105;47.964;7.982;2023-01-26T06:41:18;96978.38;;;-1.37;98.54
47366;BME280;33105;47.964;7.982;2023-01-26T06:44:19;96975.63;;;-1.29;98.69
47366;BME280;33105;47.964;7.982;2023-01-26T06:47:21;96969.31;;;-1.51;98.42
47366;BME280;33105;47.964;7.982;2023-01-26T06:50:25;96979.25;;;-1.45;98.98
47366;BME280;33105;47.964;7.982;2023-01-26T06:53:36;96977.78;;;-1.47;98.78
47366;BME280;33105;47.964;7.982;2023-01-26T06:56:57;96981.69;;;-1.35;98.26
47366;BME280;33105;47.964;7.982;2023-01-26T07:00:13;96982.22;;;-1.54;98.23
47366;BME280;33105;47.964;7.982;2023-01-26T07:03:51;96981.75;;;-1.58;99.17
47366;BME280;33105;47.964;7.982;2023-01-26T07:06:52;96992.31;;;-1.42;99.31
47366;BME280;33105;47.964;7.982;2023-01-26T07:09:53;96988.25;;;-1.38;98.78
47366;BME280;33105;47.964;7.982;2023-01-26T07:12:55;96991.41;;;-1.34;98.12
47366;BME280;33105;47.964;7.982;2023-01-26T07:16:03;96982.91;;;-1.38;98.81
47366;BME280;33105;47.964;7.982;2023-01-26T07:19:05;96993.66;;;-1.60;98.53
47366;BME280;33105;47.964;7.982;2023-01-26T07:22:06;96987.66;;;-1.48;99.58
47366;BME280;33105;47.964;7.982;2023-01-26T07:25:07;96991.50;;;-1.65;99.31
47366;BME280;33105;47.964;7.982;2023-01-26T07:28:08;96997.16;;;-1.60;99.22
47366;BME280;33105;47.964;7.982;2023-01-26T07:31:11;97002.00;;;-1.41;98.90
47366;BME280;33105;47.964;7.982;2023-01-26T07:34:12;96998.69;;;-1.43;98.13
47366;BME280;33105;47.964;7.982;2023-01-26T07:37:13;96997.31;;;-1.39;98.01
47366;BME280;33105;47.964;7.982;2023-01-26T07:40:15;97005.41;;;-1.24;98.44
47366;BME280;33105;47.964;7.982;2023-01-26T07:43:16;97002.97;;;-1.19;97.71
47366;BME280;33105;47.964;7.982;2023-01-26T07:46:25;97009.16;;;-1.33;97.45
47366;BME280;33105;47.964;7.982;2023-01-26T07:49:26;97002.59;;;-1.30;97.93
47366;BME280;33105;47.964;7.982;2023-01-26T07:52:27;97001.28;;;-1.34;97.99
47366;BME280;33105;47.964;7.982;2023-01-26T07:55:28;97011.72;;;-1.40;98.36
47366;BME280;33105;47.964;7.982;2023-01-26T07:58:29;97012.91;;;-1.42;99.00
47366;BME280;33105;47.964;7.982;2023-01-26T08:01:31;96993.31;;;-1.43;98.28
47366;BME280;33105;47.964;7.982;2023-01-26T08:04:32;97003.03;;;-1.42;98.76
47366;BME280;33105;47.964;7.982;2023-01-26T08:07:33;97003.78;;;-1.33;98.51
47366;BME280;33105;47.964;7.982;2023-01-26T08:10:34;97002.78;;;-1.32;98.42
47366;BME280;33105;47.964;7.982;2023-01-26T08:13:36;97007.06;;;-1.46;97.70
47366;BME280;33105;47.964;7.982;2023-01-26T08:16:37;96999.97;;;-1.53;98.23
47366;BME280;33105;47.964;7.982;2023-01-26T08:19:38;96998.47;;;-1.56;98.30
47366;BME280;33105;47.964;7.982;2023-01-26T08:22:40;97003.13;;;-1.50;98.17
47366;BME280;33105;47.964;7.982;2023-01-26T08:25:41;96992.78;;;-1.38;97.69
47366;BME280;33105;47.964;7.982;2023-01-26T08:28:43;97005.19;;;-1.60;98.31
47366;BME280;33105;47.964;7.982;2023-01-26T08:31:44;96992.59;;;-1.37;98.36
47366;BME280;33105;47.964;7.982;2023-01-26T08:34:45;97000.47;;;-1.20;98.14
47366;BME280;33105;47.964;7.982;2023-01-26T08:37:46;96993.00;;;-1.10;97.66
47366;BME280;33105;47.964;7.982;2023-01-26T08:40:50;96997.44;;;-1.17;96.67
47366;BME280;33105;47.964;7.982;2023-01-26T08:43:52;97002.25;;;-1.13;97.02
47366;BME280;33105;47.964;7.982;2023-01-26T08:46:54;96998.31;;;-1.02;96.98
47366;BME280;33105;47.964;7.982;2023-01-26T08:49:55;97002.91;;;-0.96;96.49
47366;BME280;33105;47.964;7.982;2023-01-26T08:52:56;96999.56;;;-0.98;96.75
47366;BME280;33105;47.964;7.982;2023-01-26T08:56:00;96996.44;;;-0.87;96.33
47366;BME280;33105;47.964;7.982;2023-01-26T08:59:02;96999.69;;;-0.91;96.00
47366;BME280;33105;47.964;7.982;2023-01-26T09:02:03;97000.88;;;-0.94;96.25
47366;BME280;33105;47.964;7.982;2023-01-26T09:05:05;97007.53;;;-0.90;96.51
47366;BME280;33105;47.964;7.982;2023-01-26T09:08:07;97011.31;;;-0.99;96.43
47366;BME280;33105;47.964;7.982;2023-01-26T09:11:09;97005.78;;;-0.83;96.52
47366;BME280;33105;47.964;7.982;2023-01-26T09:14:10;97007.81;;;-0.85;96.32
47366;BME280;33105;47.964;7.982;2023-01-26T09:17:12;96998.03;;;-0.78;95.74
47366;BME280;33105;47.964;7.982;2023-01-26T09:20:13;97006.50;;;-0.74;95.50
47366;BME280;33105;47.964;7.982;2023-01-26T09:23:14;97010.25;;;-0.75;96.25
47366;BME280;33105;47.964;7.982;2023-01-26T09:26:18;97005.97;;;-0.70;95.70
47366;BME280;33105;47.964;7.982;2023-01-26T09:29:19;97010.13;;;-0.67;95.02
47366;BME280;33105;47.964;7.982;2023-01-26T09:32:21;97016.69;;;-0.70;94.82
47366;BME280;33105;47.964;7.982;2023-01-26T09:35:23;97013.38;;;-0.57;95.16
47366;BME280;33105;47.964;7.982;2023-01-26T09:38:24;97018.28;;;-0.60;94.55
47366;BME280;33105;47.964;7.982;2023-01-26T09:41:42;97023.72;;;-0.69;95.33
47366;BME280;33105;47.964;7.982;2023-01-26T09:48:21;97020.41;;;-0.71;95.23
47366;BME280;33105;47.964;7.982;2023-01-26T09:51:35;97009.94;;;-0.65;94.45
47366;BME280;33105;47.964;7.982;2023-01-26T09:54:43;97020.69;;;-0.65;94.78
47366;BME280;33105;47.964;7.982;2023-01-26T09:57:48;97017.91;;;-1.01;95.26
47366;BME280;33105;47.964;7.982;2023-01-26T10:00:58;97008.84;;;-0.86;95.97
47366;BME280;33105;47.964;7.982;2023-01-26T10:04:20;97007.63;;;-0.98;96.99
47366;BME280;33105;47.964;7.982;2023-01-26T10:07:27;97006.34;;;-0.73;95.43
47366;BME280;33105;47.964;7.982;2023-01-26T10:10:36;97005.41;;;-1.09;96.94
47366;BME280;33105;47.964;7.982;2023-01-26T10:13:49;97010.13;;;-1.11;96.56
47366;BME280;33105;47.964;7.982;2023-01-26T10:16:52;97005.34;;;-1.01;96.82
47366;BME280;33105;47.964;7.982;2023-01-26T10:20:44;97010.78;;;-0.80;96.45
47366;BME280;33105;47.964;7.982;2023-01-26T10:23:26;97014.50;;;-0.81;95.70
47366;BME280;33105;47.964;7.982;2023-01-26T10:26:32;97010.31;;;-0.83;96.38
47366;BME280;33105;47.964;7.982;2023-01-26T10:29:33;96997.44;;;-0.73;95.53
47366;BME280;33105;47.964;7.982;2023-01-26T10:32:35;97006.09;;;-0.78;95.20
47366;BME280;33105;47.964;7.982;2023-01-26T10:35:37;96999.13;;;-0.72;95.28
47366;BME280;33105;47.964;7.982;2023-01-26T10:38:40;97005.88;;;-0.61;95.46
47366;BME280;33105;47.964;7.982;2023-01-26T10:41:57;97000.06;;;-0.80;95.42
47366;BME280;33105;47.964;7.982;2023-01-26T10:45:01;97011.06;;;-0.75;95.35
47366;BME280;33105;47.964;7.982;2023-01-26T10:48:08;97011.41;;;-1.07;96.22
47366;BME280;33105;47.964;7.982;2023-01-26T10:51:18;97001.72;;;-0.64;95.47
47366;BME280;33105;47.964;7.982;2023-01-26T10:54:24;97000.97;;;-0.73;95.53
47366;BME280;33105;47.964;7.982;2023-01-26T10:57:27;96993.31;;;-0.76;94.95
47366;BME280;33105;47.964;7.982;2023-01-26T11:00:31;96987.09;;;-0.91;95.35
47366;BME280;33105;47.964;7.982;2023-01-26T11:03:34;96984.97;;;-1.10;95.99
47366;BME280;33105;47.964;7.982;2023-01-26T11:06:35;96985.16;;;-0.97;95.52
47366;BME280;33105;47.964;7.982;2023-01-26T11:09:36;96973.88;;;-0.78;94.89
47366;BME280;33105;47.964;7.982;2023-01-26T11:12:37;96971.94;;;-0.84;95.07
47366;BME280;33105;47.964;7.982;2023-01-26T11:15:40;96978.06;;;-0.75;94.39
47366;BME280;33105;47.964;7.982;2023-01-26T11:18:58;96975.47;;;-0.83;94.92
47366;BME280;33105;47.964;7.982;2023-01-26T11:32:14;96968.22;;;-1.12;95.29
47366;BME280;33105;47.964;7.982;2023-01-26T11:35:38;96970.09;;;-1.13;95.48
47366;BME280;33105;47.964;7.982;2023-01-26T11:39:02;96962.75;;;-1.19;95.19
47366;BME280;33105;47.964;7.982;2023-01-26T11:42:19;96956.88;;;-0.85;95.14
47366;BME280;33105;47.964;7.982;2023-01-26T11:49:42;96957.25;;;-1.02;94.83
47366;BME280;33105;47.964;7.982;2023-01-26T11:52:53;96955.00;;;-0.99;95.11
47366;BME280;33105;47.964;7.982;2023-01-26T11:59:12;96948.53;;;-0.90;94.53
47366;BME280;33105;47.964;7.982;2023-01-26T12:02:31;96947.34;;;-1.17;94.42
47366;BME280;33105;47.964;7.982;2023-01-26T12:05:51;96940.16;;;-1.01;94.13
47366;BME280;33105;47.964;7.982;2023-01-26T12:08:59;96935.34;;;-1.06;93.66
47366;BME280;33105;47.964;7.982;2023-01-26T12:12:13;96929.13;;;-0.92;95.00
47366;BME280;33105;47.964;7.982;2023-01-26T12:15:26;96923.38;;;-1.18;94.30
47366;BME280;33105;47.964;7.982;2023-01-26T12:18:45;96926.34;;;-1.13;94.21
47366;BME280;33105;47.964;7.982;2023-01-26T12:21:48;96915.84;;;-1.00;93.78
47366;BME280;33105;47.964;7.982;2023-01-26T12:25:07;96916.91;;;-0.80;94.01
47366;BME280;33105;47.964;7.982;2023-01-26T12:28:30;96914.50;;;-0.75;93.98
47366;BME280;33105;47.964;7.982;2023-01-26T12:31:40;96901.47;;;-0.92;95.03
47366;BME280;33105;47.964;7.982;2023-01-26T12:34:45;96901.00;;;-0.81;94.36
47366;BME280;33105;47.964;7.982;2023-01-26T12:38:15;96892.00;;;-0.74;94.15
47366;BME280;33105;47.964;7.982;2023-01-26T12:44:59;96887.56;;;-0.66;93.01
47366;BME280;33105;47.964;7.982;2023-01-26T12:48:07;96883.94;;;-0.74;93.18
47366;BME280;33105;47.964;7.982;2023-01-26T12:51:49;96874.41;;;-0.61;92.69
47366;BME280;33105;47.964;7.982;2023-01-26T12:55:04;96873.63;;;-0.77;92.54
47366;BME280;33105;47.964;7.982;2023-01-26T12:58:26;96881.91;;;-0.72;93.19
47366;BME280;33105;47.964;7.982;2023-01-26T13:01:37;96882.19;;;-0.66;92.92
47366;BME280;33105;47.964;7.982;2023-01-26T13:04:41;96883.53;;;-0.77;91.42
47366;BME280;33105;47.964;7.982;2023-01-26T13:07:43;96879.00;;;-0.77;92.44
47366;BME280;33105;47.964;7.982;2023-01-26T13:10:48;96868.66;;;-0.94;92.78
47366;BME280;33105;47.964;7.982;2023-01-26T13:13:54;96879.94;;;-0.99;92.26
47366;BME280;33105;47.964;7.982;2023-01-26T13:17:39;96884.56;;;-1.22;92.76
47366;BME280;33105;47.964;7.982;2023-01-26T13:20:47;96888.19;;;-1.30;94.56
47366;BME280;33105;47.964;7.982;2023-01-26T13:23:48;96885.41;;;-1.07;94.41
47366;BME280;33105;47.964;7.982;2023-01-26T13:26:52;96878.47;;;-1.16;93.58
47366;BME280;33105;47.964;7.982;2023-01-26T13:29:55;96881.59;;;-0.98;93.18
47366;BME280;33105;47.964;7.982;2023-01-26T13:33:12;96883.19;;;-1.04;94.44
47366;BME280;33105;47.964;7.982;2023-01-26T13:36:15;96884.66;;;-1.16;93.43
47366;BME280;33105;47.964;7.982;2023-01-26T13:39:33;96884.66;;;-1.16;94.12
47366;BME280;33105;47.964;7.982;2023-01-26T13:42:47;96882.16;;;-0.88;93.32
47366;BME280;33105;47.964;7.982;2023-01-26T13:45:58;96884.53;;;-0.78;93.38
47366;BME280;33105;47.964;7.982;2023-01-26T13:49:01;96889.16;;;-0.87;92.09
47366;BME280;33105;47.964;7.982;2023-01-26T13:52:03;96889.53;;;-0.90;92.08
47366;BME280;33105;47.964;7.982;2023-01-26T13:55:41;96878.91;;;-0.98;91.96
47366;BME280;33105;47.964;7.982;2023-01-26T13:58:44;96882.59;;;-0.99;92.65
47366;BME280;33105;47.964;7.982;2023-01-26T14:01:51;96881.31;;;-0.88;92.55
47366;BME280;33105;47.964;7.982;2023-01-26T14:04:54;96892.06;;;-1.03;92.31
47366;BME280;33105;47.964;7.982;2023-01-26T14:07:58;96893.56;;;-1.00;91.96
47366;BME280;33105;47.964;7.982;2023-01-26T14:11:02;96896.59;;;-1.04;92.36
47366;BME280;33105;47.964;7.982;2023-01-26T14:14:04;96889.16;;;-0.87;92.59
47366;BME280;33105;47.964;7.982;2023-01-26T14:17:07;96894.91;;;-0.90;91.47
47366;BME280;33105;47.964;7.982;2023-01-26T14:20:24;96888.72;;;-0.90;92.43
47366;BME280;33105;47.964;7.982;2023-01-26T14:23:27;96894.34;;;-0.85;92.57
47366;BME280;33105;47.964;7.982;2023-01-26T14:26:30;96892.22;;;-0.90;91.84
47366;BME280;33105;47.964;7.982;2023-01-26T14:29:37;96887.16;;;-0.99;92.88
47366;BME280;33105;47.964;7.982;2023-01-26T14:32:38;96892.22;;;-0.90;92.77
47366;BME280;33105;47.964;7.982;2023-01-26T14:35:42;96894.66;;;-1.10;92.13
47366;BME280;33105;47.964;7.982;2023-01-26T14:38:45;96902.22;;;-0.98;92.26
47366;BME280;33105;47.964;7.982;2023-01-26T14:41:47;96900.94;;;-1.02;92.25
47366;BME280;33105;47.964;7.982;2023-01-26T14:44:49;96897.50;;;-1.11;92.12
47366;BME280;33105;47.964;7.982;2023-01-26T14:47:51;96908.72;;;-1.08;92.23
47366;BME280;33105;47.964;7.982;2023-01-26T14:50:53;96911.09;;;-1.13;92.51
47366;BME280;33105;47.964;7.982;2023-01-26T14:53:59;96909.63;;;-1.00;92.22
47366;BME280;33105;47.964;7.982;2023-01-26T14:57:04;96916.66;;;-1.14;92.17
47366;BME280;33105;47.964;7.982;2023-01-26T15:00:07;96918.97;;;-1.11;92.25
47366;BME280;33105;47.964;7.982;2023-01-26T15:06:25;96917.88;;;-1.02;92.71
47366;BME280;33105;47.964;7.982;2023-01-26T15:09:28;96914.34;;;-1.02;92.38
47366;BME280;33105;47.964;7.982;2023-01-26T15:12:33;96912.03;;;-1.06;91.92
47366;BME280;33105;47.964;7.982;2023-01-26T15:15:43;96912.69;;;-1.04;92.28
47366;BME280;33105;47.964;7.982;2023-01-26T15:19:02;96920.44;;;-1.09;91.18
47366;BME280;33105;47.964;7.982;2023-01-26T15:22:05;96910.00;;;-1.18;91.31
47366;BME280;33105;47.964;7.982;2023-01-26T15:25:22;96916.72;;;-1.22;91.43
47366;BME280;33105;47.964;7.982;2023-01-26T15:28:26;96912.78;;;-1.12;91.71
47366;BME280;33105;47.964;7.982;2023-01-26T15:31:36;96921.47;;;-1.24;91.80
47366;BME280;33105;47.964;7.982;2023-01-26T15:34:38;96919.69;;;-1.17;90.74
47366;BME280;33105;47.964;7.982;2023-01-26T15:37:41;96924.31;;;-1.11;91.34
47366;BME280;33105;47.964;7.982;2023-01-26T15:40:43;96930.88;;;-1.28;90.72
47366;BME280;33105;47.964;7.982;2023-01-26T15:43:44;96922.28;;;-1.39;91.76
47366;BME280;33105;47.964;7.982;2023-01-26T15:46:45;96918.88;;;-1.32;91.43
47366;BME280;33105;47.964;7.982;2023-01-26T15:49:46;96930.13;;;-1.37;90.60
47366;BME280;33105;47.964;7.982;2023-01-26T15:52:47;96920.44;;;-1.38;91.33
47366;BME280;33105;47.964;7.982;2023-01-26T15:55:49;96932.22;;;-1.47;91.07
47366;BME280;33105;47.964;7.982;2023-01-26T15:58:56;96927.16;;;-1.57;92.80
47366;BME280;33105;47.964;7.982;2023-01-26T16:01:57;96927.25;;;-1.88;92.54
47366;BME280;33105;47.964;7.982;2023-01-26T16:04:59;96928.91;;;-1.87;93.85
47366;BME280;33105;47.964;7.982;2023-01-26T16:08:00;96930.16;;;-1.75;93.99
47366;BME280;33105;47.964;7.982;2023-01-26T16:11:01;96931.91;;;-1.82;94.32
47366;BME280;33105;47.964;7.982;2023-01-26T16:14:02;96939.97;;;-1.67;93.90
47366;BME280;33105;47.964;7.982;2023-01-26T16:17:11;96937.94;;;-1.65;92.89
47366;BME280;33105;47.964;7.982;2023-01-26T16:20:14;96934.25;;;-1.64;92.88
47366;BME280;33105;47.964;7.982;2023-01-26T16:23:20;96936.25;;;-1.66;92.91
47366;BME280;33105;47.964;7.982;2023-01-26T16:26:22;96944.03;;;-1.94;94.04
47366;BME280;33105;47.964;7.982;2023-01-26T16:29:23;96945.47;;;-1.83;94.27
47366;BME280;33105;47.964;7.982;2023-01-26T16:32:28;96939.16;;;-1.90;94.09
47366;BME280;33105;47.964;7.982;2023-01-26T16:35:29;96949.97;;;-1.84;94.30
47366;BME280;33105;47.964;7.982;2023-01-26T16:38:30;96944.75;;;-1.77;94.41
47366;BME280;33105;47.964;7.982;2023-01-26T16:41:32;96935.78;;;-1.69;93.76
47366;BME280;33105;47.964;7.982;2023-01-26T16:44:33;96941.91;;;-1.98;93.84
47366;BME280;33105;47.964;7.982;2023-01-26T16:47:34;96940.81;;;-1.89;93.99
47366;BME280;33105;47.964;7.982;2023-01-26T16:50:36;96943.25;;;-1.80;93.61
47366;BME280;33105;47.964;7.982;2023-01-26T16:53:37;96946.00;;;-1.88;93.76
47366;BME280;33105;47.964;7.982;2023-01-26T16:56:38;96946.47;;;-1.84;93.25